Time;durP1;ratioP1;P1;durP2;ratioP2;P2;SDS_P1;SDS_P2;PMS_P1;PMS_P2;Temp;Humidity;BMP_temperature;BMP_pressure;BME280_temperature;BME280_humidity;BME280_pressure;Samples;Min_cycle;Max_cycle;Signal;HPM_P1;HPM_P2
2023/06/20 00:01:27;;;;;;;0.25;0.25;;;22.10;90.00;;;;;;6304277;22;20165;-82
2023/06/20 00:03:56;;;;;;;2.17;0.65;;;22.10;90.00;;;;;;6304784;22;20188;-81
2023/06/20 00:06:26;;;;;;;0.50;0.50;;;22.10;90.00;;;;;;6304493;22;20195;-82
2023/06/20 00:08:54;;;;;;;0.85;0.68;;;22.10;89.90;;;;;;6303005;22;20320;-82
2023/06/20 00:11:23;;;;;;;0.95;0.70;;;22.10;89.70;;;;;;6301841;22;20184;-82
2023/06/20 00:13:51;;;;;;;0.60;0.60;;;22.10;89.70;;;;;;6304214;22;20231;-82
2023/06/20 00:16:20;;;;;;;0.40;0.40;;;22.20;89.70;;;;;;6303078;22;20479;-82
2023/06/20 00:18:53;;;;;;;0.75;0.45;;;22.20;89.60;;;;;;6303539;22;20623;-81
2023/06/20 00:21:25;;;;;;;0.95;0.75;;;22.20;89.60;;;;;;6304199;22;20161;-81
2023/06/20 00:23:56;;;;;;;1.02;0.50;;;22.20;89.60;;;;;;6304794;22;20630;-81
2023/06/20 00:26:24;;;;;;;0.35;0.22;;;22.20;89.60;;;;;;6274179;22;20158;-81
2023/06/20 00:28:53;;;;;;;0.65;0.28;;;22.20;89.60;;;;;;6303422;22;20165;-81
2023/06/20 00:31:22;;;;;;;0.30;0.20;;;22.20;89.60;;;;;;6302865;22;20618;-82
2023/06/20 00:33:50;;;;;;;0.30;0.30;;;22.20;89.60;;;;;;6304292;22;20278;-81
2023/06/20 00:36:25;;;;;;;0.30;0.30;;;22.20;89.50;;;;;;6303348;22;20169;-82
2023/06/20 00:38:56;;;;;;;0.40;0.40;;;22.20;89.60;;;;;;6301910;22;20164;-83
2023/06/20 00:41:24;;;;;;;0.28;0.20;;;22.20;89.40;;;;;;6304075;22;20169;-81
2023/06/20 00:43:53;;;;;;;0.38;0.38;;;22.20;89.40;;;;;;6303734;22;20258;-81
2023/06/20 00:46:24;;;;;;;0.20;0.20;;;22.20;89.40;;;;;;6303905;22;20494;-81
2023/06/20 00:48:53;;;;;;;0.30;0.30;;;22.20;89.50;;;;;;6305010;22;20160;-83
2023/06/20 00:51:23;;;;;;;0.57;0.57;;;22.20;89.40;;;;;;6303319;22;20169;-81
2023/06/20 00:53:52;;;;;;;1.40;1.25;;;22.20;89.40;;;;;;6303197;22;20887;-81
2023/06/20 00:56:22;;;;;;;0.73;0.45;;;22.10;89.60;;;;;;6300881;22;20235;-81
2023/06/20 00:58:51;;;;;;;2.35;1.27;;;22.10;89.60;;;;;;6304336;22;20227;-82
2023/06/20 01:01:21;;;;;;;1.42;1.10;;;22.10;89.50;;;;;;6298979;22;20661;-81
2023/06/20 01:03:51;;;;;;;0.90;0.60;;;22.10;90.00;;;;;;6302917;22;20181;-82
2023/06/20 01:06:30;;;;;;;0.52;0.52;;;22.10;90.00;;;;;;6302114;22;20173;-82
2023/06/20 01:09:07;;;;;;;0.50;0.50;;;22.10;90.00;;;;;;6301392;22;20171;-82
2023/06/20 01:11:46;;;;;;;0.65;0.50;;;22.00;90.00;;;;;;6303481;22;20157;-82
2023/06/20 01:14:21;;;;;;;0.63;0.52;;;22.00;90.00;;;;;;6302861;22;20161;-81
2023/06/20 01:16:58;;;;;;;0.30;0.30;;;22.00;90.00;;;;;;6276127;22;20236;-81
2023/06/20 01:19:48;;;;;;;0.50;0.40;;;22.00;90.00;;;;;;6302406;22;20626;-81
2023/06/20 01:22:39;;;;;;;0.75;0.75;;;22.00;90.10;;;;;;6275388;22;20164;-81
2023/06/20 01:25:13;;;;;;;0.82;0.52;;;22.00;90.20;;;;;;6303007;22;20161;-82
2023/06/20 01:27:48;;;;;;;0.30;0.30;;;22.00;90.30;;;;;;6277106;22;20180;-81
2023/06/20 01:30:21;;;;;;;0.40;0.40;;;22.00;90.30;;;;;;6302720;22;20164;-81
2023/06/20 01:32:54;;;;;;;0.90;0.90;;;21.90;90.30;;;;;;6302572;22;20168;-82
2023/06/20 01:35:27;;;;;;;1.17;1.08;;;22.00;90.50;;;;;;6300507;22;20487;-81
2023/06/20 01:38:01;;;;;;;0.85;0.85;;;22.00;90.70;;;;;;6304738;22;20165;-82
2023/06/20 01:40:30;;;;;;;0.95;0.88;;;21.90;90.80;;;;;;6303582;22;20162;-81
2023/06/20 01:43:01;;;;;;;0.68;0.68;;;22.00;90.90;;;;;;6299447;22;20189;-82
2023/06/20 01:45:34;;;;;;;0.73;0.73;;;22.00;90.80;;;;;;6301805;22;20157;-81
2023/06/20 01:48:05;;;;;;;0.65;0.40;;;22.00;90.70;;;;;;6277880;22;20154;-82
2023/06/20 01:50:35;;;;;;;1.02;0.50;;;22.00;90.70;;;;;;6302936;22;20173;-81
2023/06/20 01:53:08;;;;;;;0.88;0.70;;;22.00;90.70;;;;;;6304158;22;20239;-83
2023/06/20 01:55:41;;;;;;;0.55;0.52;;;22.00;90.70;;;;;;6302971;22;20153;-82
2023/06/20 01:58:11;;;;;;;0.30;0.30;;;22.00;90.80;;;;;;6302839;22;20279;-81
2023/06/20 02:00:41;;;;;;;0.70;0.65;;;22.00;90.90;;;;;;6304462;22;20172;-82
2023/06/20 02:03:11;;;;;;;0.70;0.70;;;22.00;91.00;;;;;;6303811;22;20188;-82
2023/06/20 02:05:42;;;;;;;1.95;1.05;;;22.00;91.00;;;;;;6302038;22;20166;-82
2023/06/20 02:08:13;;;;;;;0.47;0.47;;;22.00;91.00;;;;;;6303776;22;20153;-82
2023/06/20 02:10:43;;;;;;;0.68;0.68;;;22.10;91.20;;;;;;6303777;22;20834;-82
2023/06/20 02:13:12;;;;;;;0.98;0.95;;;22.10;91.40;;;;;;6303293;22;20197;-81
2023/06/20 02:15:42;;;;;;;5.28;1.77;;;22.10;91.40;;;;;;6302052;22;20169;-82
2023/06/20 02:18:11;;;;;;;1.90;1.00;;;22.10;91.60;;;;;;6304016;22;20169;-82
2023/06/20 02:20:41;;;;;;;1.15;0.82;;;22.10;91.80;;;;;;6302907;22;20169;-81
2023/06/20 02:23:12;;;;;;;2.67;1.35;;;22.10;91.80;;;;;;6304814;22;20645;-81
2023/06/20 02:25:44;;;;;;;0.65;0.65;;;22.10;91.90;;;;;;6303046;22;20602;-82
2023/06/20 02:28:16;;;;;;;2.67;0.73;;;22.10;91.80;;;;;;6304167;22;20157;-81
2023/06/20 02:30:45;;;;;;;1.08;0.65;;;22.10;91.60;;;;;;6302992;22;20161;-82
2023/06/20 02:33:16;;;;;;;1.05;0.88;;;22.20;91.60;;;;;;6302879;22;20180;-80
2023/06/20 02:35:47;;;;;;;1.15;1.05;;;22.20;91.50;;;;;;6302306;22;20901;-82
2023/06/20 02:38:18;;;;;;;0.93;0.80;;;22.20;91.80;;;;;;6303897;22;20165;-82
2023/06/20 02:40:46;;;;;;;0.85;0.65;;;22.30;91.30;;;;;;6275749;22;20184;-81
2023/06/20 02:43:15;;;;;;;0.52;0.50;;;22.20;91.30;;;;;;6303285;22;20170;-81
2023/06/20 02:45:44;;;;;;;1.00;0.65;;;22.30;91.30;;;;;;6302240;22;20523;-81
2023/06/20 02:48:27;;;;;;;1.05;0.75;;;22.30;91.20;;;;;;6304597;22;20165;-81
2023/06/20 02:51:05;;;;;;;1.42;1.15;;;22.30;91.60;;;;;;6281594;22;20160;-82
2023/06/20 02:53:44;;;;;;;1.55;0.93;;;22.30;91.10;;;;;;6278672;22;20185;-82
2023/06/20 02:56:14;;;;;;;0.82;0.65;;;22.30;91.00;;;;;;6305458;22;20153;-82
2023/06/20 02:58:47;;;;;;;0.55;0.43;;;22.30;91.00;;;;;;6304075;22;20672;-82
2023/06/20 03:01:19;;;;;;;1.45;0.85;;;22.30;90.90;;;;;;6305784;22;20494;-81
2023/06/20 03:03:51;;;;;;;0.85;0.47;;;22.40;90.90;;;;;;6302533;22;20192;-82
2023/06/20 03:06:27;;;;;;;1.95;1.23;;;22.40;90.80;;;;;;6304793;22;20242;-81
2023/06/20 03:08:59;;;;;;;3.72;1.25;;;22.40;90.80;;;;;;6305029;22;20542;-82
2023/06/20 03:11:27;;;;;;;1.25;0.82;;;22.40;90.70;;;;;;6303378;22;20214;-81
2023/06/20 03:13:56;;;;;;;0.25;0.25;;;22.40;90.70;;;;;;6306350;22;20165;-80
2023/06/20 03:16:26;;;;;;;0.70;0.70;;;22.40;90.60;;;;;;6278553;22;20169;-81
2023/06/20 03:18:55;;;;;;;1.02;0.60;;;22.50;90.60;;;;;;6306042;22;20385;-81
2023/06/20 03:21:24;;;;;;;0.85;0.75;;;22.50;90.50;;;;;;6305909;22;20173;-81
2023/06/20 03:23:58;;;;;;;0.73;0.43;;;22.50;90.50;;;;;;6305491;22;20185;-81
2023/06/20 03:26:27;;;;;;;0.30;0.30;;;22.50;90.50;;;;;;6305698;22;20193;-82
2023/06/20 03:28:55;;;;;;;0.32;0.32;;;22.50;90.50;;;;;;6305743;22;20188;-82
2023/06/20 03:31:24;;;;;;;4.57;1.40;;;22.60;90.40;;;;;;6303349;22;20169;-81
2023/06/20 03:33:52;;;;;;;0.68;0.68;;;22.60;90.40;;;;;;6276832;22;20626;-82
2023/06/20 03:36:22;;;;;;;0.47;0.47;;;22.60;90.40;;;;;;6304289;22;20645;-81
2023/06/20 03:38:50;;;;;;;0.30;0.30;;;22.60;90.40;;;;;;6305587;22;20170;-81
2023/06/20 03:41:20;;;;;;;0.38;0.38;;;22.60;90.30;;;;;;6305219;22;20177;-81
2023/06/20 03:43:49;;;;;;;0.80;0.40;;;22.60;90.20;;;;;;6302750;22;20553;-81
2023/06/20 03:46:17;;;;;;;0.63;0.40;;;22.70;90.20;;;;;;6304803;22;20179;-82
2023/06/20 03:48:46;;;;;;;1.10;1.00;;;22.70;90.20;;;;;;6305816;22;20310;-81
2023/06/20 03:51:14;;;;;;;0.57;0.57;;;22.70;90.10;;;;;;6302682;22;20528;-82
2023/06/20 03:53:42;;;;;;;0.55;0.55;;;22.70;90.00;;;;;;6304949;22;20185;-81
2023/06/20 03:56:11;;;;;;;0.63;0.60;;;22.70;90.00;;;;;;6304750;22;20165;-82
2023/06/20 03:58:41;;;;;;;0.93;0.57;;;22.80;90.00;;;;;;6305006;22;20193;-80
2023/06/20 04:01:10;;;;;;;0.88;0.82;;;22.80;89.80;;;;;;6303945;22;20165;-82
2023/06/20 04:03:38;;;;;;;0.80;0.45;;;22.80;89.70;;;;;;6303730;22;20173;-81
2023/06/20 04:06:07;;;;;;;0.68;0.55;;;22.80;89.60;;;;;;6302710;22;20176;-82
2023/06/20 04:08:35;;;;;;;1.05;1.00;;;22.80;89.50;;;;;;6304619;22;20169;-81
2023/06/20 04:11:04;;;;;;;0.70;0.70;;;22.80;89.50;;;;;;6303183;22;20169;-82
2023/06/20 04:13:32;;;;;;;0.70;0.68;;;22.90;89.50;;;;;;6305560;22;20199;-81
2023/06/20 04:18:48;;;;;;;1.10;1.00;;;22.90;89.20;;;;;;6239139;22;20282;-84
2023/06/20 04:21:17;;;;;;;0.63;0.63;;;22.90;89.20;;;;;;6252571;22;20166;-84
2023/06/20 04:23:46;;;;;;;1.85;1.27;;;22.90;89.10;;;;;;6279128;22;20549;-82
2023/06/20 04:26:15;;;;;;;0.63;0.50;;;23.00;89.10;;;;;;6280939;22;20269;-83
2023/06/20 04:28:43;;;;;;;1.80;0.98;;;23.00;89.00;;;;;;6279029;22;20188;-83
2023/06/20 04:31:13;;;;;;;1.02;0.57;;;23.00;88.90;;;;;;6280658;22;20219;-82
2023/06/20 04:33:44;;;;;;;1.63;0.45;;;23.00;88.90;;;;;;6277384;22;20168;-84
2023/06/20 04:36:15;;;;;;;0.55;0.55;;;23.10;88.90;;;;;;6286100;22;20207;-85
2023/06/20 04:38:44;;;;;;;0.65;0.55;;;23.10;88.80;;;;;;6278378;22;20273;-84
2023/06/20 04:41:16;;;;;;;0.80;0.70;;;23.10;88.70;;;;;;6254601;22;20162;-85
2023/06/20 04:43:45;;;;;;;0.75;0.75;;;23.10;88.60;;;;;;6278450;22;20174;-86
2023/06/20 04:46:15;;;;;;;0.70;0.70;;;23.10;88.70;;;;;;6278242;22;20204;-85
2023/06/20 04:48:44;;;;;;;0.45;0.45;;;23.20;88.80;;;;;;6278596;22;20161;-84
2023/06/20 04:51:16;;;;;;;1.73;1.08;;;23.20;88.80;;;;;;6278914;22;20554;-85
2023/06/20 04:53:49;;;;;;;1.27;0.90;;;23.20;88.70;;;;;;6279021;22;20158;-86
2023/06/20 04:56:17;;;;;;;1.35;0.73;;;23.20;88.90;;;;;;6278776;22;20166;-86
2023/06/20 04:58:47;;;;;;;1.85;1.10;;;23.20;89.10;;;;;;6276693;22;20201;-86
2023/06/20 05:01:18;;;;;;;1.80;1.63;;;23.20;89.70;;;;;;6276606;22;20189;-87
2023/06/20 05:03:47;;;;;;;15.52;1.42;;;23.20;90.00;;;;;;6278369;22;20176;-86
2023/06/20 05:06:19;;;;;;;2.63;0.93;;;23.20;90.10;;;;;;6275669;22;20185;-86
2023/06/20 05:08:48;;;;;;;0.88;0.82;;;23.20;90.20;;;;;;6274611;22;20626;-84
2023/06/20 05:11:19;;;;;;;0.77;0.65;;;23.20;90.20;;;;;;6275195;22;20162;-85
2023/06/20 05:13:49;;;;;;;1.15;1.05;;;23.20;90.40;;;;;;6273960;22;20165;-84
2023/06/20 05:16:17;;;;;;;0.50;0.40;;;23.30;90.40;;;;;;6249039;22;20166;-83
2023/06/20 05:18:50;;;;;;;1.30;1.02;;;23.30;90.50;;;;;;6276045;22;20574;-84
2023/06/20 05:21:20;;;;;;;0.70;0.70;;;23.30;90.50;;;;;;6278365;22;20219;-85
2023/06/20 05:23:51;;;;;;;0.98;0.82;;;23.40;90.60;;;;;;6276745;22;20162;-85
2023/06/20 05:26:19;;;;;;;1.20;1.10;;;23.40;90.70;;;;;;6250444;22;20264;-85
2023/06/20 05:28:48;;;;;;;0.50;0.50;;;23.40;90.70;;;;;;6276015;22;20553;-86
2023/06/20 05:31:17;;;;;;;0.30;0.30;;;23.50;90.70;;;;;;6272965;22;20165;-83
2023/06/20 05:33:48;;;;;;;0.55;0.55;;;23.50;90.60;;;;;;6248006;22;20538;-85
2023/06/20 05:36:17;;;;;;;2.25;1.13;;;23.50;90.50;;;;;;6248476;22;20216;-83
2023/06/20 05:38:50;;;;;;;0.82;0.80;;;23.60;90.50;;;;;;6276774;22;20169;-85
2023/06/20 05:41:19;;;;;;;2.53;1.15;;;23.60;90.40;;;;;;6278162;22;20166;-84
2023/06/20 05:43:47;;;;;;;0.90;0.80;;;23.70;90.40;;;;;;6248703;22;20210;-85
2023/06/20 05:46:16;;;;;;;1.17;0.98;;;23.70;90.20;;;;;;6278407;22;20261;-86
2023/06/20 05:48:48;;;;;;;0.30;0.30;;;23.70;90.10;;;;;;6278956;22;20203;-85
2023/06/20 05:51:16;;;;;;;1.02;0.75;;;23.80;90.00;;;;;;6274179;22;20223;-85
2023/06/20 05:53:47;;;;;;;0.75;0.70;;;23.80;90.00;;;;;;6247475;22;20166;-86
2023/06/20 05:56:16;;;;;;;0.93;0.60;;;23.80;89.60;;;;;;6274482;22;20221;-85
2023/06/20 05:58:44;;;;;;;0.73;0.60;;;23.90;89.60;;;;;;6249174;22;20154;-88
2023/06/20 06:01:14;;;;;;;1.20;1.10;;;24.00;89.40;;;;;;6278364;22;20607;-85
2023/06/20 06:03:43;;;;;;;1.10;0.60;;;24.00;89.30;;;;;;6280448;22;20283;-84
2023/06/20 06:06:12;;;;;;;1.40;1.02;;;24.10;89.30;;;;;;6279837;22;20251;-84
2023/06/20 06:08:46;;;;;;;0.40;0.38;;;24.20;88.60;;;;;;6280902;22;20180;-85
2023/06/20 06:11:15;;;;;;;1.63;0.80;;;24.40;88.60;;;;;;6277536;22;20165;-86
2023/06/20 06:13:47;;;;;;;1.50;0.90;;;24.50;88.50;;;;;;6270106;22;20170;-86
2023/06/20 06:16:17;;;;;;;1.02;0.93;;;24.60;88.00;;;;;;6279068;22;20521;-86
2023/06/20 06:18:46;;;;;;;1.17;0.68;;;24.70;87.50;;;;;;6278708;22;20198;-84
2023/06/20 06:21:16;;;;;;;0.50;0.50;;;24.80;86.50;;;;;;6275998;22;20170;-87
2023/06/20 06:23:47;;;;;;;2.40;0.98;;;24.80;86.60;;;;;;6250445;22;20193;-86
2023/06/20 06:26:16;;;;;;;0.60;0.57;;;24.90;86.10;;;;;;6278519;22;20201;-86
2023/06/20 06:28:44;;;;;;;2.08;0.75;;;24.90;85.30;;;;;;6278169;22;20169;-86
2023/06/20 06:31:16;;;;;;;2.55;1.23;;;25.00;84.30;;;;;;6279720;22;20657;-88
2023/06/20 06:33:45;;;;;;;0.55;0.52;;;25.10;84.20;;;;;;6274445;22;20228;-83
2023/06/20 06:36:16;;;;;;;1.95;0.80;;;25.20;84.30;;;;;;6274907;22;20201;-83
2023/06/20 06:38:49;;;;;;;1.50;1.02;;;25.30;84.80;;;;;;6280925;22;20245;-83
2023/06/20 06:41:18;;;;;;;2.60;1.13;;;25.40;85.20;;;;;;6280307;22;20189;-83
2023/06/20 06:43:49;;;;;;;1.58;1.20;;;25.40;85.10;;;;;;6281028;22;20173;-84
2023/06/20 06:46:17;;;;;;;1.38;1.27;;;25.50;84.70;;;;;;6279858;22;20547;-83
2023/06/20 06:48:47;;;;;;;2.78;0.90;;;25.60;84.20;;;;;;6279915;22;20181;-83
2023/06/20 06:51:16;;;;;;;0.50;0.50;;;25.70;84.10;;;;;;6279175;22;20189;-84
2023/06/20 06:53:46;;;;;;;2.45;1.38;;;25.70;83.20;;;;;;6278656;22;20218;-84
2023/06/20 06:56:14;;;;;;;0.52;0.50;;;25.70;82.20;;;;;;6280800;22;20178;-84
2023/06/20 06:58:43;;;;;;;3.50;0.45;;;25.70;82.10;;;;;;6280063;22;20509;-84
2023/06/20 07:01:13;;;;;;;1.58;0.82;;;25.80;81.90;;;;;;6281303;22;20603;-84
2023/06/20 07:03:42;;;;;;;2.45;1.00;;;25.80;81.40;;;;;;6279514;22;20196;-83
2023/06/20 07:06:11;;;;;;;2.15;1.42;;;25.80;80.60;;;;;;6281758;22;20225;-83
2023/06/20 07:08:39;;;;;;;0.40;0.40;;;25.80;79.70;;;;;;6279073;22;20364;-84
2023/06/20 07:11:09;;;;;;;1.52;1.25;;;25.90;79.70;;;;;;6280823;22;20166;-84
2023/06/20 07:13:37;;;;;;;0.80;0.80;;;25.90;79.70;;;;;;6280631;22;20170;-83
2023/06/20 07:16:06;;;;;;;0.40;0.40;;;26.00;80.00;;;;;;6281635;22;20182;-84
2023/06/20 07:18:34;;;;;;;0.50;0.50;;;26.10;79.60;;;;;;6279240;22;20202;-83
2023/06/20 07:21:04;;;;;;;1.00;0.90;;;26.10;78.30;;;;;;6277956;22;20515;-84
2023/06/20 07:23:33;;;;;;;1.42;0.70;;;26.10;78.70;;;;;;6278372;22;20177;-85
2023/06/20 08:05:43;;;;;;;1.00;0.80;;;25.30;77.90;;;;;;5070652;27;20663;-84
2023/06/20 08:08:12;;;;;;;1.08;0.98;;;25.90;78.00;;;;;;5056008;27;20190;-83
2023/06/20 08:10:40;;;;;;;1.70;1.00;;;26.00;77.40;;;;;;5050882;28;20542;-84
2023/06/20 08:13:09;;;;;;;1.42;0.73;;;26.10;77.60;;;;;;5063379;27;20588;-84
2023/06/20 08:15:37;;;;;;;4.97;1.88;;;26.20;77.60;;;;;;5060386;27;20647;-83
2023/06/20 08:18:05;;;;;;;0.80;0.77;;;26.20;77.20;;;;;;5059278;27;20205;-84
2023/06/20 08:20:34;;;;;;;2.22;1.08;;;26.30;76.70;;;;;;5075766;27;20199;-86
2023/06/20 08:23:04;;;;;;;1.85;1.35;;;26.40;76.40;;;;;;5090268;27;20202;-83
2023/06/20 08:25:32;;;;;;;0.70;0.60;;;26.50;75.80;;;;;;5057045;27;20200;-84
2023/06/20 08:28:01;;;;;;;3.20;1.63;;;26.50;74.80;;;;;;5048314;28;20191;-83
2023/06/20 08:30:42;;;;;;;0.95;0.68;;;26.60;75.20;;;;;;5087964;27;20188;-84
2023/06/20 08:33:11;;;;;;;1.15;1.00;;;26.70;75.40;;;;;;5075394;27;20313;-84
2023/06/20 08:35:39;;;;;;;0.60;0.52;;;26.70;75.00;;;;;;5078923;27;20206;-83
2023/06/20 08:38:09;;;;;;;1.13;1.00;;;26.80;75.00;;;;;;5058896;27;20232;-81
2023/06/20 08:40:38;;;;;;;2.13;1.50;;;26.80;73.40;;;;;;5047860;27;21138;-86
2023/06/20 08:43:07;;;;;;;1.90;1.00;;;26.90;73.10;;;;;;5048062;27;20198;-84
2023/06/20 08:45:37;;;;;;;2.08;1.30;;;27.00;73.00;;;;;;5098614;27;20191;-86
2023/06/20 08:48:05;;;;;;;1.45;1.10;;;27.00;70.70;;;;;;5049105;28;20225;-85
2023/06/20 08:50:34;;;;;;;0.45;0.45;;;27.10;70.40;;;;;;5051457;27;20195;-85
2023/06/20 08:53:04;;;;;;;1.75;1.08;;;27.10;70.60;;;;;;5087826;27;20570;-84
2023/06/20 08:55:36;;;;;;;0.95;0.55;;;27.20;70.20;;;;;;5060289;27;20209;-83
2023/06/20 08:58:08;;;;;;;1.25;0.68;;;27.20;69.80;;;;;;5062020;27;20279;-87
2023/06/20 09:00:38;;;;;;;2.63;1.58;;;27.30;68.30;;;;;;5048319;27;20563;-85
2023/06/20 09:03:07;;;;;;;1.35;1.13;;;27.40;69.00;;;;;;5077733;27;20215;-86
2023/06/20 09:05:42;;;;;;;1.48;0.80;;;27.50;69.40;;;;;;5083238;27;20262;-85
2023/06/20 09:08:14;;;;;;;1.55;0.95;;;27.50;67.70;;;;;;5036175;28;20187;-85
2023/06/20 09:10:44;;;;;;;1.08;0.82;;;27.60;68.10;;;;;;5033066;27;20195;-85
2023/06/20 09:13:13;;;;;;;1.95;0.98;;;27.60;68.10;;;;;;5039760;27;20241;-83
2023/06/20 09:15:42;;;;;;;1.05;0.50;;;27.70;66.30;;;;;;5055846;27;20628;-84
2023/06/20 09:18:14;;;;;;;0.30;0.30;;;27.80;66.70;;;;;;5037558;27;20200;-85
2023/06/20 09:20:43;;;;;;;2.00;1.02;;;27.70;66.40;;;;;;5052281;27;20242;-86
2023/06/20 09:23:26;;;;;;;2.05;0.70;;;27.80;66.70;;;;;;5054441;27;20196;-87
2023/06/20 09:25:57;;;;;;;0.70;0.70;;;27.80;66.10;;;;;;5071509;27;20211;-84
2023/06/20 09:28:33;;;;;;;1.27;1.05;;;27.80;64.40;;;;;;5029579;28;20191;-86
2023/06/20 09:31:02;;;;;;;0.57;0.57;;;27.80;65.00;;;;;;5054732;27;20198;-86
2023/06/20 09:33:31;;;;;;;1.33;1.00;;;27.90;64.00;;;;;;5046750;27;20191;-84
2023/06/20 09:36:12;;;;;;;1.27;0.55;;;27.90;63.80;;;;;;5035016;27;20199;-85
2023/06/20 09:38:43;;;;;;;1.38;0.82;;;28.00;64.20;;;;;;5038116;28;20191;-85
2023/06/20 09:41:17;;;;;;;0.50;0.50;;;28.00;64.40;;;;;;5038110;27;21033;-84
2023/06/20 09:43:46;;;;;;;0.70;0.68;;;28.00;63.50;;;;;;5032485;28;20199;-84
2023/06/20 09:46:14;;;;;;;1.42;0.85;;;28.10;64.10;;;;;;5038571;27;20630;-85
2023/06/20 09:48:44;;;;;;;1.35;0.90;;;28.10;62.10;;;;;;5033243;28;20191;-84
2023/06/20 09:51:12;;;;;;;0.73;0.73;;;28.10;62.90;;;;;;5041640;28;20206;-84
2023/06/20 09:53:47;;;;;;;0.47;0.47;;;28.10;62.70;;;;;;5044370;27;20198;-85
2023/06/20 09:56:21;;;;;;;0.52;0.47;;;28.10;61.10;;;;;;5033434;27;20202;-84
2023/06/20 09:58:51;;;;;;;1.55;0.63;;;28.00;61.30;;;;;;5070786;27;20196;-84
2023/06/20 10:01:21;;;;;;;1.00;0.65;;;28.10;61.70;;;;;;5047841;27;20200;-84
2023/06/20 10:03:50;;;;;;;1.00;0.50;;;28.20;61.50;;;;;;5056466;27;20273;-84
2023/06/20 10:06:20;;;;;;;0.65;0.40;;;28.30;61.90;;;;;;5035345;28;20283;-85
2023/06/20 10:08:50;;;;;;;0.80;0.52;;;28.40;61.60;;;;;;5031287;28;20203;-86
2023/06/20 10:11:22;;;;;;;1.85;0.77;;;28.40;61.90;;;;;;5036729;27;20197;-86
2023/06/20 10:13:51;;;;;;;1.23;1.08;;;28.50;61.40;;;;;;5042746;27;20188;-86
2023/06/20 10:16:20;;;;;;;0.88;0.70;;;28.50;62.30;;;;;;5030704;27;20408;-85
2023/06/20 10:18:49;;;;;;;1.02;0.75;;;28.50;62.90;;;;;;5045314;27;20203;-83
2023/06/20 10:21:37;;;;;;;0.95;0.55;;;28.50;62.80;;;;;;5033719;28;20660;-84
2023/06/20 10:24:06;;;;;;;2.85;1.50;;;28.50;62.00;;;;;;5042673;27;20678;-86
2023/06/20 10:26:37;;;;;;;0.50;0.50;;;28.70;62.50;;;;;;5042075;27;20667;-84
2023/06/20 10:29:06;;;;;;;0.65;0.40;;;28.70;62.60;;;;;;5035634;27;20613;-85
2023/06/20 10:31:56;;;;;;;0.57;0.57;;;28.70;62.80;;;;;;5043414;27;20199;-86
2023/06/20 10:34:35;;;;;;;1.27;0.55;;;28.70;62.60;;;;;;5064892;27;20203;-85
2023/06/20 10:37:38;;;;;;;1.38;0.70;;;28.70;61.70;;;;;;5061170;27;20195;-85
2023/06/20 10:40:09;;;;;;;0.80;0.55;;;28.70;61.20;;;;;;5047159;27;20190;-85
2023/06/20 10:42:41;;;;;;;0.98;0.55;;;28.70;61.40;;;;;;5039826;28;20188;-85
2023/06/20 10:45:21;;;;;;;0.93;0.60;;;28.80;61.10;;;;;;5036894;27;20699;-85
2023/06/20 10:47:50;;;;;;;0.75;0.60;;;28.90;60.70;;;;;;5039009;27;20190;-85
2023/06/20 10:50:23;;;;;;;3.13;0.95;;;28.90;60.20;;;;;;5040093;27;20279;-84
2023/06/20 10:52:51;;;;;;;3.85;1.30;;;29.00;59.30;;;;;;5040309;27;20195;-85
2023/06/20 10:55:24;;;;;;;2.08;1.08;;;28.90;58.70;;;;;;5054220;27;20680;-84
2023/06/20 10:57:55;;;;;;;0.20;0.20;;;28.90;58.40;;;;;;5033114;28;20194;-85
2023/06/20 11:00:24;;;;;;;0.40;0.40;;;29.10;59.30;;;;;;5090963;27;20225;-85
2023/06/20 11:02:55;;;;;;;0.22;0.22;;;29.10;59.40;;;;;;5056588;27;20200;-83
2023/06/20 11:05:27;;;;;;;0.95;0.63;;;29.20;59.40;;;;;;5051051;27;20284;-83
2023/06/20 11:07:58;;;;;;;0.57;0.57;;;29.20;58.70;;;;;;5046508;27;20237;-84
2023/06/20 11:10:31;;;;;;;0.68;0.57;;;29.30;57.80;;;;;;5076699;27;20648;-84
2023/06/20 11:13:02;;;;;;;0.47;0.47;;;29.30;55.90;;;;;;5057528;27;20202;-84
2023/06/20 11:15:32;;;;;;;0.30;0.30;;;29.40;56.10;;;;;;5049372;27;20215;-84
2023/06/20 11:18:03;;;;;;;0.73;0.63;;;29.40;56.30;;;;;;5038699;27;20286;-84
2023/06/20 11:20:35;;;;;;;0.45;0.45;;;29.40;55.00;;;;;;5028634;28;20716;-86
2023/06/20 11:23:05;;;;;;;0.73;0.68;;;29.50;56.70;;;;;;5057265;27;20190;-85
2023/06/20 11:25:36;;;;;;;0.63;0.63;;;29.60;56.30;;;;;;5035363;27;20211;-85
2023/06/20 11:28:07;;;;;;;0.63;0.40;;;29.60;55.80;;;;;;5037412;27;20195;-85
2023/06/20 11:30:37;;;;;;;0.30;0.30;;;29.60;55.20;;;;;;5039059;27;20207;-85
2023/06/20 11:33:10;;;;;;;0.30;0.30;;;29.60;53.30;;;;;;5040374;27;20192;-86
2023/06/20 11:35:46;;;;;;;1.20;0.65;;;29.70;54.00;;;;;;5067595;27;20187;-84
2023/06/20 11:38:17;;;;;;;1.42;0.85;;;29.70;54.30;;;;;;5050759;27;20198;-85
2023/06/20 11:40:46;;;;;;;11.63;0.38;;;29.80;53.90;;;;;;5044134;27;20661;-84
2023/06/20 11:43:23;;;;;;;0.40;0.40;;;29.80;53.50;;;;;;5047919;27;20188;-85
2023/06/20 11:45:52;;;;;;;0.45;0.45;;;29.90;53.20;;;;;;5044312;27;20222;-84
2023/06/20 11:48:20;;;;;;;0.20;0.20;;;29.90;53.30;;;;;;5043920;27;20191;-85
2023/06/20 11:50:56;;;;;;;0.35;0.30;;;29.90;52.20;;;;;;5044841;27;20329;-85
2023/06/20 11:53:27;;;;;;;0.65;0.40;;;30.00;53.10;;;;;;5029708;27;20992;-87
2023/06/20 11:55:58;;;;;;;0.35;0.35;;;30.00;51.60;;;;;;5038018;27;20200;-84
2023/06/20 11:58:37;;;;;;;0.30;0.30;;;30.10;52.10;;;;;;5031706;28;20199;-82
2023/06/20 12:01:09;;;;;;;0.35;0.30;;;30.20;52.50;;;;;;5033008;27;20302;-84
2023/06/20 12:03:39;;;;;;;0.30;0.30;;;30.20;51.80;;;;;;5049375;27;20223;-82
2023/06/20 12:06:27;;;;;;;0.20;0.20;;;30.30;51.90;;;;;;5035196;27;20302;-84
2023/06/20 12:08:57;;;;;;;0.30;0.30;;;30.40;51.80;;;;;;5045852;28;20199;-84
2023/06/20 12:11:26;;;;;;;0.30;0.30;;;30.40;52.00;;;;;;5038528;27;20250;-83
2023/06/20 12:13:57;;;;;;;0.32;0.32;;;30.50;52.20;;;;;;5058926;27;20196;-84
2023/06/20 12:16:26;;;;;;;0.20;0.20;;;30.50;51.00;;;;;;5047255;27;20571;-84
2023/06/20 12:18:57;;;;;;;0.28;0.20;;;30.60;51.70;;;;;;5058513;27;20199;-84
2023/06/20 12:21:26;;;;;;;0.30;0.30;;;30.60;51.30;;;;;;5035967;28;20196;-84
2023/06/20 12:23:55;;;;;;;2.35;0.50;;;30.70;52.20;;;;;;5040835;28;20192;-84
2023/06/20 12:26:24;;;;;;;0.43;0.43;;;30.70;52.50;;;;;;5034057;28;20220;-82
2023/06/20 12:28:53;;;;;;;0.80;0.40;;;30.80;52.60;;;;;;5047004;28;20199;-80
2023/06/20 12:31:24;;;;;;;1.02;0.77;;;30.90;52.90;;;;;;5035405;27;20203;-82
2023/06/20 12:33:52;;;;;;;0.50;0.50;;;30.90;53.20;;;;;;5036737;27;20188;-83
2023/06/20 12:36:21;;;;;;;0.40;0.40;;;31.10;53.20;;;;;;5028466;27;22344;-83
2023/06/20 12:38:50;;;;;;;1.08;0.38;;;31.20;53.30;;;;;;5038387;28;20268;-82
2023/06/20 12:41:18;;;;;;;0.63;0.32;;;31.30;53.10;;;;;;5045904;27;20203;-83
2023/06/20 12:43:46;;;;;;;0.30;0.30;;;31.40;53.20;;;;;;5042416;27;20196;-83
2023/06/20 12:46:15;;;;;;;0.63;0.55;;;31.60;53.60;;;;;;5045293;27;20691;-83
2023/06/20 12:48:44;;;;;;;1.30;0.60;;;31.90;53.40;;;;;;5042253;28;20192;-82
2023/06/20 12:51:14;;;;;;;1.02;0.60;;;32.10;53.00;;;;;;5037215;28;20224;-84
2023/06/20 12:53:43;;;;;;;1.08;0.40;;;32.20;52.50;;;;;;5039070;27;20605;-84
2023/06/20 12:56:12;;;;;;;0.30;0.30;;;32.20;52.10;;;;;;5042082;28;20203;-84
2023/06/20 12:58:40;;;;;;;0.82;0.82;;;32.20;51.50;;;;;;5043997;27;20192;-81
2023/06/20 13:01:08;;;;;;;0.50;0.50;;;32.20;51.00;;;;;;5043079;28;20744;-82
2023/06/20 13:03:37;;;;;;;0.95;0.68;;;32.20;50.40;;;;;;5042636;27;20317;-79
2023/06/20 13:06:07;;;;;;;0.80;0.50;;;32.10;50.50;;;;;;5034623;28;21410;-86
2023/06/20 13:08:39;;;;;;;0.98;0.57;;;32.10;50.90;;;;;;5044442;27;20190;-81
2023/06/20 13:11:07;;;;;;;0.50;0.50;;;32.00;50.20;;;;;;5043677;27;20200;-82
2023/06/20 13:13:37;;;;;;;1.35;0.52;;;31.90;49.80;;;;;;5045361;28;20192;-81
2023/06/20 13:16:05;;;;;;;0.35;0.35;;;31.90;50.20;;;;;;5061703;27;20256;-82
2023/06/20 13:18:34;;;;;;;1.55;0.60;;;31.90;50.40;;;;;;5033075;28;20554;-81
2023/06/20 13:21:02;;;;;;;1.08;0.45;;;31.90;50.40;;;;;;5036897;27;20278;-83
2023/06/20 13:23:32;;;;;;;0.55;0.50;;;31.90;49.50;;;;;;5066723;27;20621;-81
2023/06/20 13:26:01;;;;;;;0.30;0.30;;;31.90;49.50;;;;;;5043209;27;20216;-81
2023/06/20 13:28:29;;;;;;;2.03;1.20;;;31.80;49.50;;;;;;5039903;28;20656;-82
2023/06/20 13:30:57;;;;;;;0.55;0.40;;;31.80;49.70;;;;;;5041808;27;20195;-82
2023/06/20 13:33:26;;;;;;;0.30;0.30;;;31.80;49.90;;;;;;5035892;28;20200;-83
2023/06/20 13:35:54;;;;;;;5.68;2.03;;;31.80;50.20;;;;;;5028982;27;20192;-82
2023/06/20 13:38:22;;;;;;;1.27;1.17;;;31.70;50.20;;;;;;5062236;27;20196;-91
2023/06/20 13:40:52;;;;;;;1.23;0.98;;;31.60;50.30;;;;;;5036370;27;20188;-83
2023/06/20 13:43:21;;;;;;;1.15;0.80;;;31.60;50.60;;;;;;5037534;28;20192;-85
2023/06/20 13:45:49;;;;;;;0.40;0.40;;;31.60;50.50;;;;;;5081566;27;20192;-85
2023/06/20 13:48:18;;;;;;;1.08;0.50;;;31.70;50.70;;;;;;5040900;28;20241;-85